Time;durP1;ratioP1;P1;durP2;ratioP2;P2;SDS_P1;SDS_P2;PMS_P1;PMS_P2;Temp;Humidity;BMP_temperature;BMP_pressure;BME280_temperature;BME280_humidity;BME280_pressure;Samples;Min_cycle;Max_cycle;Signal;HPM_P1;HPM_P2
2022/06/22 00:00:20;;;;;;;6.05;2.30;;;16.90;99.90;;;;;;4992374;28;20523;-55
2022/06/22 00:02:50;;;;;;;3.28;1.98;;;16.90;99.90;;;;;;4992200;28;20173;-55
2022/06/22 00:05:19;;;;;;;13.32;2.70;;;16.80;99.90;;;;;;4992493;28;20176;-54
2022/06/22 00:07:51;;;;;;;5.47;2.17;;;16.80;99.90;;;;;;4992139;28;20629;-55
2022/06/22 00:10:49;;;;;;;6.25;1.98;;;16.80;99.90;;;;;;4992063;28;20161;-55
2022/06/22 00:13:19;;;;;;;5.75;2.22;;;16.80;99.90;;;;;;4992077;28;20180;-55
2022/06/22 00:15:49;;;;;;;10.18;2.67;;;16.80;99.90;;;;;;4992323;28;20213;-55
2022/06/22 00:18:33;;;;;;;3.80;2.15;;;16.80;99.90;;;;;;4992045;28;20184;-55
2022/06/22 00:21:04;;;;;;;3.10;1.80;;;16.70;99.90;;;;;;4992041;28;20168;-55
2022/06/22 00:23:38;;;;;;;3.67;2.17;;;16.70;99.90;;;;;;4992320;28;20247;-54
2022/06/22 00:26:14;;;;;;;6.50;2.45;;;16.60;99.90;;;;;;4991908;28;20232;-54
2022/06/22 00:29:09;;;;;;;8.70;2.33;;;16.60;99.90;;;;;;4974564;28;20601;-54
2022/06/22 00:31:37;;;;;;;7.35;2.50;;;16.70;99.90;;;;;;4992475;28;20673;-54
2022/06/22 00:34:09;;;;;;;4.32;2.13;;;16.60;99.90;;;;;;4991863;28;20169;-55
2022/06/22 00:37:01;;;;;;;5.53;2.30;;;16.60;99.90;;;;;;4992439;28;20169;-55
2022/06/22 00:39:29;;;;;;;4.95;1.90;;;16.60;99.90;;;;;;4995667;28;20317;-54
2022/06/22 00:42:18;;;;;;;6.72;2.30;;;16.60;99.90;;;;;;4995337;28;20192;-55
2022/06/22 00:45:00;;;;;;;6.70;3.10;;;16.60;99.90;;;;;;4995543;28;20183;-55
2022/06/22 00:47:45;;;;;;;4.28;2.42;;;16.60;99.90;;;;;;4995481;28;20599;-54
2022/06/22 00:50:18;;;;;;;5.35;2.53;;;16.50;99.90;;;;;;4977526;28;20208;-54
2022/06/22 00:52:59;;;;;;;5.57;3.00;;;16.50;99.90;;;;;;4995179;28;20173;-55
2022/06/22 00:55:37;;;;;;;10.18;2.85;;;16.40;99.90;;;;;;4977709;28;20176;-55
2022/06/22 00:58:08;;;;;;;5.07;2.58;;;16.40;99.90;;;;;;4995036;28;20191;-55
2022/06/22 01:00:41;;;;;;;7.63;2.70;;;16.90;99.90;;;;;;4995367;28;20165;-55
2022/06/22 01:03:16;;;;;;;4.47;2.28;;;16.40;99.90;;;;;;4995312;28;20169;-55
2022/06/22 01:05:55;;;;;;;5.72;2.55;;;16.30;99.90;;;;;;4995007;28;20172;-55
2022/06/22 01:08:48;;;;;;;7.10;2.63;;;16.20;99.90;;;;;;4994903;28;20184;-55
2022/06/22 01:14:28;;;;;;;7.65;3.05;;;16.10;99.90;;;;;;4995032;28;20234;-55
2022/06/22 01:16:57;;;;;;;5.57;2.40;;;16.20;99.90;;;;;;4994789;28;20171;-55
2022/06/22 01:19:34;;;;;;;4.93;1.95;;;16.20;99.90;;;;;;4994688;28;20165;-55
2022/06/22 01:22:18;;;;;;;5.20;2.35;;;16.10;99.90;;;;;;4994885;28;20537;-55
2022/06/22 01:25:14;;;;;;;4.65;2.50;;;16.10;99.90;;;;;;4977156;28;20257;-55
2022/06/22 01:27:42;;;;;;;7.28;2.42;;;16.20;99.90;;;;;;4994459;28;20295;-55
2022/06/22 01:30:20;;;;;;;4.88;2.08;;;16.10;99.90;;;;;;4994792;28;20165;-55
2022/06/22 01:32:46;;;;;;;4.30;2.45;;;16.10;99.90;;;;;;4994507;28;20176;-55
2022/06/22 01:35:25;;;;;;;8.00;2.85;;;16.10;99.90;;;;;;4994464;28;20203;-55
2022/06/22 01:37:51;;;;;;;3.97;2.33;;;16.10;99.90;;;;;;4994356;28;20164;-55
2022/06/22 01:40:18;;;;;;;5.63;2.65;;;15.90;99.90;;;;;;4994321;28;20529;-55
2022/06/22 01:42:53;;;;;;;6.40;2.88;;;15.90;99.90;;;;;;4994179;28;20161;-55
2022/06/22 01:45:31;;;;;;;6.32;2.70;;;15.80;99.90;;;;;;4994191;28;20168;-55
2022/06/22 01:48:05;;;;;;;4.63;2.40;;;15.80;99.90;;;;;;4994005;28;20204;-55
2022/06/22 01:50:48;;;;;;;5.60;2.40;;;15.80;99.90;;;;;;4975822;28;20211;-54
2022/06/22 01:53:30;;;;;;;4.82;2.13;;;15.90;99.90;;;;;;4994053;28;20666;-55
2022/06/22 01:56:19;;;;;;;4.38;2.22;;;15.90;99.90;;;;;;4993964;28;20250;-54
2022/06/22 01:58:53;;;;;;;5.32;2.83;;;15.80;99.90;;;;;;4994209;28;20184;-55
2022/06/22 02:01:23;;;;;;;6.78;2.58;;;15.80;99.90;;;;;;4994145;28;20168;-55
2022/06/22 02:04:11;;;;;;;7.40;2.08;;;15.80;99.90;;;;;;4993791;28;20247;-54
2022/06/22 02:10:17;;;;;;;4.13;2.40;;;15.70;99.90;;;;;;4994029;28;20199;-55
2022/06/22 02:12:56;;;;;;;4.95;2.55;;;15.60;99.90;;;;;;4963461;28;20263;-55
2022/06/22 02:15:24;;;;;;;7.75;2.92;;;15.60;99.90;;;;;;4993274;28;20176;-55
2022/06/22 02:17:52;;;;;;;4.68;2.70;;;15.70;99.90;;;;;;4993545;28;20542;-55
2022/06/22 02:20:26;;;;;;;4.55;2.45;;;15.70;99.90;;;;;;4993709;28;20175;-55
2022/06/22 02:22:55;;;;;;;5.90;2.90;;;15.70;99.90;;;;;;4993687;28;20207;-55
2022/06/22 02:25:24;;;;;;;6.38;2.60;;;15.60;99.90;;;;;;4993671;28;20189;-55
2022/06/22 02:27:49;;;;;;;6.18;2.60;;;15.60;99.90;;;;;;4975884;28;20227;-55
2022/06/22 02:30:15;;;;;;;5.35;2.22;;;15.60;99.90;;;;;;4993386;28;20172;-55
2022/06/22 02:32:43;;;;;;;5.10;2.28;;;15.50;99.90;;;;;;4993341;28;20180;-55
2022/06/22 02:35:12;;;;;;;3.80;2.58;;;15.50;99.90;;;;;;4993275;28;20172;-55
2022/06/22 02:37:43;;;;;;;5.88;2.65;;;15.40;99.90;;;;;;4976076;28;20176;-55
2022/06/22 02:40:14;;;;;;;8.85;2.85;;;15.30;99.90;;;;;;4993201;28;20175;-55
2022/06/22 02:45:27;;;;;;;6.30;2.92;;;15.40;99.90;;;;;;4993181;28;20176;-55
2022/06/22 02:48:13;;;;;;;4.80;2.83;;;15.30;99.90;;;;;;4992893;28;20208;-55
2022/06/22 02:50:53;;;;;;;3.47;2.30;;;15.30;99.90;;;;;;4992866;28;20299;-55
2022/06/22 02:53:24;;;;;;;7.18;3.20;;;15.30;99.90;;;;;;4993062;28;20172;-54
2022/06/22 02:55:51;;;;;;;6.85;2.85;;;15.30;99.90;;;;;;4992878;28;20168;-54
2022/06/22 02:58:32;;;;;;;5.70;2.90;;;15.20;99.90;;;;;;4992910;28;20224;-54
2022/06/22 03:01:07;;;;;;;8.25;3.35;;;15.10;99.90;;;;;;4992933;28;20251;-54
2022/06/22 03:03:36;;;;;;;10.75;3.08;;;15.20;99.90;;;;;;4993417;28;20187;-55
2022/06/22 03:06:03;;;;;;;9.82;3.53;;;15.10;99.90;;;;;;4992623;28;20629;-55
2022/06/22 03:08:29;;;;;;;8.27;3.40;;;15.00;99.90;;;;;;4992638;28;20183;-54
2022/06/22 03:10:59;;;;;;;10.82;3.47;;;15.00;99.90;;;;;;4992713;28;20165;-55
2022/06/22 03:13:28;;;;;;;9.18;2.95;;;15.00;99.90;;;;;;4992540;28;20219;-55
2022/06/22 03:15:54;;;;;;;6.32;2.97;;;14.90;99.90;;;;;;4992384;28;20168;-55
2022/06/22 03:18:24;;;;;;;5.03;2.97;;;14.90;99.90;;;;;;4993147;28;20184;-55
2022/06/22 03:21:01;;;;;;;7.30;3.25;;;14.90;99.90;;;;;;4992794;28;20180;-55
2022/06/22 03:23:39;;;;;;;8.18;3.60;;;15.00;99.90;;;;;;4992604;28;20173;-55
2022/06/22 03:26:19;;;;;;;10.45;3.50;;;15.00;99.90;;;;;;4992935;28;20168;-55
2022/06/22 03:28:54;;;;;;;8.43;3.40;;;15.10;99.90;;;;;;4992775;28;20222;-55
2022/06/22 03:31:46;;;;;;;5.18;3.33;;;15.10;99.90;;;;;;4992501;28;20200;-55
2022/06/22 03:34:19;;;;;;;7.78;3.55;;;15.10;99.90;;;;;;4991863;28;20183;-55
2022/06/22 03:37:05;;;;;;;5.93;3.28;;;15.00;99.90;;;;;;4992525;28;20169;-55
2022/06/22 03:39:35;;;;;;;6.18;3.40;;;15.10;99.90;;;;;;4992368;28;20172;-55
2022/06/22 03:42:09;;;;;;;8.23;3.33;;;15.00;99.90;;;;;;4992243;28;20240;-55
2022/06/22 03:44:41;;;;;;;7.60;3.75;;;15.00;99.90;;;;;;4992283;28;20164;-55
2022/06/22 03:47:14;;;;;;;9.15;3.05;;;15.00;99.90;;;;;;4992768;28;20204;-55
2022/06/22 03:50:04;;;;;;;6.03;3.50;;;15.20;99.90;;;;;;4992065;28;20169;-54
2022/06/22 03:52:38;;;;;;;9.93;3.75;;;15.20;99.90;;;;;;4992349;28;20180;-55
2022/06/22 03:55:12;;;;;;;9.77;3.75;;;15.10;99.90;;;;;;4992673;28;20161;-54
2022/06/22 03:57:43;;;;;;;6.97;2.90;;;15.10;99.90;;;;;;4992254;28;20272;-54
2022/06/22 04:00:11;;;;;;;8.35;3.60;;;15.20;99.90;;;;;;4992216;28;20665;-54
2022/06/22 04:02:37;;;;;;;8.05;3.45;;;15.30;99.90;;;;;;4992478;28;20705;-54
2022/06/22 04:05:04;;;;;;;6.45;3.67;;;15.30;99.90;;;;;;4992524;28;20257;-54
2022/06/22 04:07:35;;;;;;;10.40;3.58;;;15.50;99.90;;;;;;4992347;28;20224;-54
2022/06/22 04:10:03;;;;;;;10.52;3.58;;;15.60;99.90;;;;;;4991992;28;20180;-54
2022/06/22 04:12:37;;;;;;;6.68;3.20;;;15.60;99.90;;;;;;4993026;28;20252;-55
2022/06/22 04:15:32;;;;;;;6.28;3.55;;;15.70;99.90;;;;;;4996457;28;20223;-55
2022/06/22 04:18:14;;;;;;;9.13;4.07;;;15.70;99.90;;;;;;4995739;28;20169;-54
2022/06/22 04:20:51;;;;;;;6.97;3.95;;;15.70;99.90;;;;;;4995761;28;20606;-55
2022/06/22 04:23:38;;;;;;;7.78;4.18;;;15.70;99.90;;;;;;4995979;28;20172;-54
2022/06/22 04:26:21;;;;;;;7.55;4.15;;;15.70;99.90;;;;;;4995983;28;20188;-55
2022/06/22 04:28:53;;;;;;;7.88;3.78;;;15.70;99.90;;;;;;4995643;28;20173;-55
2022/06/22 04:31:29;;;;;;;8.70;3.83;;;15.90;99.90;;;;;;4995626;28;20256;-55
2022/06/22 04:33:59;;;;;;;13.82;4.57;;;16.00;99.90;;;;;;4995490;28;20172;-54
2022/06/22 04:36:42;;;;;;;11.18;4.35;;;16.30;99.90;;;;;;4995559;28;20175;-55
2022/06/22 04:39:27;;;;;;;8.95;4.00;;;16.30;99.90;;;;;;4995439;28;20165;-55
2022/06/22 04:41:53;;;;;;;8.27;3.60;;;16.30;99.90;;;;;;4995467;28;20250;-54
2022/06/22 04:44:26;;;;;;;10.63;4.15;;;16.40;99.90;;;;;;4995376;28;20164;-55
2022/06/22 04:46:56;;;;;;;7.13;3.92;;;16.40;99.90;;;;;;4994826;28;20669;-55
2022/06/22 04:49:36;;;;;;;9.80;3.90;;;16.50;99.90;;;;;;4995155;28;20181;-54
2022/06/22 04:52:12;;;;;;;9.40;4.75;;;16.40;99.90;;;;;;4995476;28;20664;-55
2022/06/22 04:54:40;;;;;;;9.80;4.07;;;16.50;99.90;;;;;;4995143;28;20176;-55
2022/06/22 04:57:32;;;;;;;10.75;3.58;;;16.70;99.90;;;;;;4995014;28;20169;-55
2022/06/22 05:00:00;;;;;;;9.68;3.85;;;17.00;99.90;;;;;;4994935;28;20227;-55
2022/06/22 05:02:27;;;;;;;11.38;4.68;;;17.30;99.90;;;;;;4995043;28;20193;-55
2022/06/22 05:04:58;;;;;;;9.27;4.07;;;17.50;99.90;;;;;;4994972;28;20172;-55
2022/06/22 05:07:45;;;;;;;6.70;3.90;;;17.40;99.90;;;;;;4994756;28;20835;-54
2022/06/22 05:10:29;;;;;;;6.35;4.03;;;17.30;99.90;;;;;;4994824;28;20204;-55
2022/06/22 05:12:59;;;;;;;8.43;4.05;;;17.10;99.90;;;;;;4994776;28;20180;-54
2022/06/22 05:15:30;;;;;;;8.25;4.20;;;17.30;99.90;;;;;;4994637;28;20167;-55
2022/06/22 05:17:58;;;;;;;8.02;4.50;;;17.30;99.90;;;;;;4994605;28;20246;-54
2022/06/22 05:20:52;;;;;;;6.88;4.53;;;17.50;99.90;;;;;;4994975;28;20585;-55
2022/06/22 05:23:21;;;;;;;11.80;5.63;;;17.80;99.90;;;;;;4976783;28;20179;-55
2022/06/22 05:25:49;;;;;;;8.38;4.45;;;17.90;99.90;;;;;;4993876;28;20692;-55
2022/06/22 05:28:20;;;;;;;11.60;5.30;;;18.00;99.90;;;;;;4994534;28;20674;-55
2022/06/22 05:30:54;;;;;;;11.90;4.55;;;18.10;99.90;;;;;;4994706;28;20165;-54
2022/06/22 05:33:22;;;;;;;8.32;4.82;;;17.90;99.90;;;;;;4994430;28;20176;-54
2022/06/22 05:35:58;;;;;;;12.95;5.00;;;18.00;99.90;;;;;;4994381;28;20169;-54
2022/06/22 05:38:26;;;;;;;14.27;5.45;;;18.20;99.90;;;;;;4994229;28;20165;-54
2022/06/22 05:40:53;;;;;;;8.15;4.78;;;18.30;99.90;;;;;;4994485;28;20215;-55
2022/06/22 05:43:20;;;;;;;10.07;5.65;;;18.40;99.90;;;;;;4994188;28;20169;-55
2022/06/22 05:45:57;;;;;;;10.27;4.50;;;18.60;99.90;;;;;;4994380;28;20172;-55
2022/06/22 05:48:25;;;;;;;9.85;4.47;;;18.80;99.90;;;;;;4994120;28;20180;-54
2022/06/22 05:50:56;;;;;;;5.72;3.88;;;18.60;99.90;;;;;;4993899;28;20251;-54
2022/06/22 05:53:51;;;;;;;7.40;4.10;;;18.10;99.90;;;;;;4994018;28;20590;-54
2022/06/22 05:56:36;;;;;;;6.35;4.43;;;18.10;99.90;;;;;;4976509;28;20168;-54
2022/06/22 05:59:25;;;;;;;9.18;4.53;;;18.30;99.90;;;;;;4994276;28;20173;-54
2022/06/22 06:02:00;;;;;;;7.05;3.55;;;18.50;99.90;;;;;;4993761;28;20176;-54
2022/06/22 06:04:34;;;;;;;8.40;4.22;;;18.60;99.90;;;;;;4993892;28;20646;-54
2022/06/22 06:07:10;;;;;;;9.23;4.35;;;18.60;99.90;;;;;;4976213;28;20212;-54
2022/06/22 06:09:36;;;;;;;10.55;4.60;;;18.60;99.90;;;;;;4994015;28;20203;-54
2022/06/22 06:12:09;;;;;;;9.25;4.97;;;18.40;99.90;;;;;;4994070;28;20634;-55
2022/06/22 06:14:41;;;;;;;7.43;4.60;;;18.50;99.90;;;;;;4993958;28;20165;-55
2022/06/22 06:17:18;;;;;;;10.75;4.55;;;18.50;99.90;;;;;;4993671;28;20169;-55
2022/06/22 06:19:49;;;;;;;7.18;4.57;;;18.50;99.90;;;;;;4993559;28;20172;-55
2022/06/22 06:22:15;;;;;;;7.47;4.22;;;18.40;99.90;;;;;;4993427;28;20176;-55
2022/06/22 06:27:38;;;;;;;6.97;4.20;;;18.30;99.90;;;;;;4993756;28;20258;-55
2022/06/22 06:30:10;;;;;;;8.10;4.80;;;18.60;99.90;;;;;;4993889;28;20176;-55
2022/06/22 06:32:59;;;;;;;9.85;5.43;;;18.60;99.90;;;;;;4993330;28;20176;-55
2022/06/22 06:35:41;;;;;;;14.60;5.68;;;18.90;99.90;;;;;;4992990;28;20169;-55
2022/06/22 06:38:30;;;;;;;9.60;5.43;;;19.00;99.90;;;;;;4993380;28;20257;-55
2022/06/22 06:41:17;;;;;;;9.20;5.10;;;18.90;99.90;;;;;;4993220;28;20259;-55
2022/06/22 06:44:03;;;;;;;9.23;4.70;;;19.20;99.90;;;;;;4993135;28;20164;-54
2022/06/22 06:46:52;;;;;;;11.02;4.38;;;19.10;99.90;;;;;;4992930;28;20204;-55
2022/06/22 06:49:26;;;;;;;8.48;4.25;;;19.40;99.90;;;;;;4993071;28;20252;-55
2022/06/22 06:52:26;;;;;;;8.77;5.22;;;19.50;99.90;;;;;;4992991;28;20187;-55
2022/06/22 06:55:15;;;;;;;11.00;4.93;;;19.70;99.90;;;;;;4975339;28;20189;-55
2022/06/22 06:58:11;;;;;;;7.80;4.93;;;19.90;99.90;;;;;;4993164;28;20223;-55
2022/06/22 07:00:38;;;;;;;10.10;5.30;;;20.10;99.90;;;;;;4986872;28;20642;-55
2022/06/22 07:03:08;;;;;;;7.97;4.00;;;20.20;99.90;;;;;;4993210;28;20248;-55
2022/06/22 07:05:33;;;;;;;9.77;4.75;;;20.30;99.90;;;;;;4993156;28;20189;-55
2022/06/22 07:08:28;;;;;;;7.53;5.00;;;20.20;99.90;;;;;;4992705;28;20637;-55
2022/06/22 07:11:00;;;;;;;7.60;4.70;;;20.40;99.90;;;;;;4989468;28;20181;-55
2022/06/22 07:13:46;;;;;;;11.15;5.03;;;20.50;99.90;;;;;;4992666;28;20247;-55
2022/06/22 07:16:15;;;;;;;8.68;4.28;;;21.90;99.90;;;;;;4992655;28;20196;-55
2022/06/22 07:18:44;;;;;;;8.63;4.13;;;20.70;99.90;;;;;;4992604;28;20196;-55
2022/06/22 07:21:21;;;;;;;10.80;4.35;;;20.60;99.90;;;;;;4992685;28;20172;-54
2022/06/22 07:23:52;;;;;;;4.43;4.03;;;20.50;99.90;;;;;;4976126;28;20165;-55
2022/06/22 07:26:37;;;;;;;7.85;3.90;;;20.80;99.90;;;;;;4992748;28;20264;-55
2022/06/22 07:29:18;;;;;;;9.75;4.07;;;21.00;99.90;;;;;;4992854;28;20177;-54
2022/06/22 07:31:59;;;;;;;7.90;4.03;;;21.00;99.90;;;;;;4992469;28;20160;-55
2022/06/22 07:34:33;;;;;;;10.93;4.30;;;21.20;99.90;;;;;;4992501;28;20218;-55
2022/06/22 07:37:07;;;;;;;8.27;4.00;;;21.30;99.90;;;;;;4992545;28;20164;-55
2022/06/22 07:39:46;;;;;;;6.70;4.20;;;21.40;99.90;;;;;;4990947;28;20246;-54
2022/06/22 07:42:13;;;;;;;8.85;3.97;;;21.40;99.90;;;;;;4991323;28;20165;-55
2022/06/22 07:44:39;;;;;;;8.18;4.47;;;21.60;99.90;;;;;;4991015;28;20164;-55
2022/06/22 07:47:42;;;;;;;6.75;4.60;;;21.50;99.90;;;;;;4991256;28;20212;-55
2022/06/22 07:50:19;;;;;;;8.38;3.83;;;21.60;99.90;;;;;;4994872;28;20740;-55
2022/06/22 07:52:51;;;;;;;8.13;4.05;;;21.90;99.90;;;;;;4993722;28;20203;-55
2022/06/22 07:55:37;;;;;;;5.40;4.10;;;22.00;99.90;;;;;;4995180;28;20173;-55
2022/06/22 07:58:30;;;;;;;8.00;4.20;;;22.00;99.90;;;;;;4995200;28;20176;-55
2022/06/22 08:00:59;;;;;;;5.65;3.78;;;22.00;99.90;;;;;;4994838;28;20172;-55
2022/06/22 08:03:39;;;;;;;8.27;4.63;;;22.20;99.90;;;;;;4994908;28;20169;-55
2022/06/22 08:06:09;;;;;;;5.35;4.40;;;22.10;99.90;;;;;;4995288;28;20180;-56
2022/06/22 08:08:41;;;;;;;7.85;4.43;;;22.40;99.90;;;;;;4994584;28;20199;-55
2022/06/22 08:11:22;;;;;;;9.40;4.18;;;22.40;99.90;;;;;;4994852;28;20177;-55
2022/06/22 08:14:13;;;;;;;6.20;3.53;;;22.50;99.90;;;;;;4994322;28;20169;-55
2022/06/22 08:16:51;;;;;;;5.57;3.40;;;22.50;99.90;;;;;;4984201;28;20192;-55
2022/06/22 08:19:17;;;;;;;6.25;3.50;;;22.70;99.90;;;;;;4994854;28;20538;-55
2022/06/22 08:21:50;;;;;;;5.60;3.83;;;22.80;99.90;;;;;;4994545;28;20216;-55
2022/06/22 08:24:18;;;;;;;6.75;3.08;;;22.90;99.90;;;;;;4994550;28;20650;-55
2022/06/22 08:26:44;;;;;;;9.45;3.10;;;23.20;99.90;;;;;;4994571;28;20215;-55
2022/06/22 08:29:13;;;;;;;4.03;2.65;;;23.20;99.90;;;;;;4994656;28;20599;-55
2022/06/22 08:31:46;;;;;;;3.58;2.75;;;23.40;99.90;;;;;;4994703;28;20592;-55
2022/06/22 08:34:15;;;;;;;4.75;3.28;;;23.50;99.90;;;;;;4994468;28;20171;-55
2022/06/22 08:36:46;;;;;;;4.95;2.92;;;23.50;99.90;;;;;;4994599;28;20211;-55
2022/06/22 08:39:17;;;;;;;4.82;2.90;;;23.50;99.90;;;;;;4992763;28;20169;-55
2022/06/22 08:41:52;;;;;;;4.18;3.00;;;23.50;99.90;;;;;;4994088;28;20203;-55
2022/06/22 08:45:06;;;;;;;7.47;3.20;;;23.40;99.90;;;;;;4994120;28;20576;-55
2022/06/22 08:47:47;;;;;;;5.00;2.75;;;23.60;99.90;;;;;;4994275;28;20566;-55
2022/06/22 08:50:25;;;;;;;5.80;3.38;;;23.70;99.90;;;;;;4993346;28;20217;-55
2022/06/22 08:53:12;;;;;;;8.50;3.70;;;23.70;99.90;;;;;;4993576;28;20204;-55
2022/06/22 08:55:47;;;;;;;6.05;3.08;;;23.80;99.90;;;;;;4993681;28;20169;-55
2022/06/22 08:58:51;;;;;;;4.47;3.10;;;23.70;99.90;;;;;;4993639;28;20496;-55
2022/06/22 09:01:52;;;;;;;5.22;3.55;;;24.00;99.90;;;;;;4972332;28;20263;-55
2022/06/22 09:04:29;;;;;;;6.97;3.67;;;24.10;99.90;;;;;;4993526;28;20175;-55
2022/06/22 09:07:15;;;;;;;6.85;3.85;;;24.20;99.90;;;;;;4993486;28;20209;-55
2022/06/22 09:10:22;;;;;;;7.30;3.40;;;24.30;99.90;;;;;;4993141;28;20248;-55
2022/06/22 09:13:27;;;;;;;6.10;3.50;;;24.30;99.90;;;;;;4977252;28;20288;-56
2022/06/22 09:16:13;;;;;;;6.75;3.42;;;24.40;99.90;;;;;;4993317;28;20187;-55
2022/06/22 09:19:00;;;;;;;6.75;3.55;;;24.60;99.90;;;;;;4993299;28;20161;-56
2022/06/22 09:21:53;;;;;;;3.53;2.65;;;24.80;99.90;;;;;;4993232;28;20251;-55
2022/06/22 09:24:50;;;;;;;4.43;3.22;;;25.00;99.90;;;;;;4993428;28;20173;-55
2022/06/22 09:27:50;;;;;;;5.28;3.50;;;25.00;99.90;;;;;;4993455;28;20208;-56
2022/06/22 09:30:54;;;;;;;5.22;3.80;;;25.00;99.90;;;;;;4990349;28;20555;-55
2022/06/22 09:33:22;;;;;;;7.43;3.20;;;24.90;99.90;;;;;;4993295;28;20172;-56
2022/06/22 09:36:06;;;;;;;5.80;3.33;;;24.90;99.90;;;;;;4993071;28;20200;-55
2022/06/22 09:38:40;;;;;;;6.35;3.65;;;25.10;99.90;;;;;;5006149;28;20259;-55
2022/06/22 09:41:32;;;;;;;6.65;3.78;;;24.90;99.90;;;;;;5012618;28;20175;-56
2022/06/22 09:44:22;;;;;;;5.07;3.05;;;25.00;99.90;;;;;;5012621;28;20164;-55
2022/06/22 09:47:12;;;;;;;8.07;2.83;;;25.30;99.90;;;;;;5012525;28;20287;-55
2022/06/22 09:50:04;;;;;;;8.80;4.38;;;25.40;99.90;;;;;;5011846;28;20175;-55
2022/06/22 09:52:49;;;;;;;4.40;3.45;;;25.40;99.90;;;;;;5011340;28;20167;-55
2022/06/22 09:58:52;;;;;;;3.92;2.42;;;25.60;99.90;;;;;;5011102;28;20226;-55
2022/06/22 10:01:46;;;;;;;5.07;2.55;;;26.00;99.90;;;;;;4993115;28;20175;-55
2022/06/22 10:04:35;;;;;;;4.47;3.03;;;25.90;99.90;;;;;;4966841;28;20180;-55
2022/06/22 10:07:25;;;;;;;4.55;3.30;;;26.10;99.90;;;;;;5010963;28;20198;-55
2022/06/22 10:10:13;;;;;;;5.18;2.78;;;26.20;99.90;;;;;;5010261;28;20176;-55
2022/06/22 10:12:45;;;;;;;6.05;3.30;;;26.30;99.90;;;;;;5010583;28;20629;-55
2022/06/22 10:15:26;;;;;;;4.75;3.10;;;26.10;99.90;;;;;;5010578;28;20172;-55
2022/06/22 10:18:16;;;;;;;6.55;3.88;;;26.30;99.90;;;;;;5010645;28;20164;-55
2022/06/22 10:21:00;;;;;;;8.40;3.00;;;26.60;99.90;;;;;;5010341;28;20168;-56
2022/06/22 10:23:26;;;;;;;4.72;2.40;;;26.30;99.90;;;;;;5010622;28;20187;-55
2022/06/22 10:25:59;;;;;;;6.97;2.92;;;26.60;99.90;;;;;;5010618;28;20242;-55
2022/06/22 10:28:38;;;;;;;5.38;2.55;;;26.50;99.90;;;;;;5010350;28;20199;-56
2022/06/22 10:31:19;;;;;;;7.38;3.05;;;26.30;99.90;;;;;;5011164;28;20168;-55
2022/06/22 10:34:03;;;;;;;4.78;2.50;;;26.30;99.90;;;;;;5010288;28;20175;-55
2022/06/22 10:36:59;;;;;;;11.77;2.88;;;26.40;98.40;;;;;;5010958;28;20684;-55
2022/06/22 10:40:03;;;;;;;4.70;2.78;;;26.70;97.90;;;;;;4992638;28;20625;-55
2022/06/22 10:46:11;;;;;;;4.22;2.38;;;26.80;99.10;;;;;;4969068;28;20215;-56
2022/06/22 10:49:02;;;;;;;5.50;2.55;;;27.00;94.90;;;;;;5012002;28;20526;-55
2022/06/22 10:51:54;;;;;;;4.50;2.55;;;27.00;91.90;;;;;;5011332;28;20211;-55
2022/06/22 10:54:19;;;;;;;2.17;1.85;;;27.10;92.50;;;;;;5010320;28;20198;-55
2022/06/22 10:57:05;;;;;;;2.63;2.05;;;26.90;92.40;;;;;;5009957;28;20203;-55
2022/06/22 10:59:41;;;;;;;3.15;2.03;;;27.30;90.50;;;;;;5010095;28;20155;-55
2022/06/22 11:02:23;;;;;;;2.53;2.25;;;27.20;88.80;;;;;;4992158;28;20175;-55
2022/06/22 11:05:10;;;;;;;3.78;2.17;;;27.40;88.50;;;;;;5009767;28;20183;-55
2022/06/22 11:08:05;;;;;;;3.97;2.22;;;27.60;88.60;;;;;;5009429;28;20680;-56
2022/06/22 11:10:42;;;;;;;2.97;2.17;;;27.60;86.60;;;;;;4992438;28;20175;-56
2022/06/22 11:13:45;;;;;;;5.07;2.10;;;27.40;84.00;;;;;;4991903;28;20636;-55
2022/06/22 11:16:23;;;;;;;10.10;2.30;;;27.40;84.90;;;;;;5009500;28;20183;-56
2022/06/22 11:19:10;;;;;;;3.70;2.00;;;27.50;84.50;;;;;;4992499;28;20198;-55
2022/06/22 11:22:08;;;;;;;6.03;2.40;;;27.50;83.50;;;;;;4991860;28;20712;-55
2022/06/22 11:24:57;;;;;;;3.35;2.10;;;27.80;83.80;;;;;;5009423;28;20551;-55
2022/06/22 11:30:48;;;;;;;4.57;2.53;;;28.20;83.90;;;;;;5010010;28;20173;-55
2022/06/22 11:33:25;;;;;;;3.58;2.45;;;28.10;83.60;;;;;;5009282;28;20179;-55
2022/06/22 11:36:30;;;;;;;4.75;2.30;;;28.20;83.70;;;;;;5008437;28;20155;-55
2022/06/22 11:39:20;;;;;;;4.60;2.50;;;28.20;82.80;;;;;;4959311;28;20187;-55
2022/06/22 11:42:16;;;;;;;5.43;2.10;;;28.00;81.90;;;;;;5009172;28;20522;-55
2022/06/22 11:48:20;;;;;;;5.18;2.63;;;28.40;82.60;;;;;;5009153;28;20218;-55
2022/06/22 11:51:04;;;;;;;4.88;2.60;;;28.30;81.70;;;;;;5010036;28;20219;-55
2022/06/22 11:54:00;;;;;;;5.25;2.10;;;28.60;82.90;;;;;;5010905;28;20164;-54
2022/06/22 11:56:41;;;;;;;3.70;2.20;;;28.40;83.00;;;;;;5010491;28;20163;-54
2022/06/22 11:59:32;;;;;;;3.03;2.53;;;28.80;83.70;;;;;;5010305;28;20205;-54
2022/06/22 12:02:09;;;;;;;7.60;2.83;;;28.20;82.90;;;;;;5010875;28;20168;-54
2022/06/22 12:04:46;;;;;;;7.10;2.60;;;28.50;82.90;;;;;;5009962;28;20164;-55
2022/06/22 12:07:44;;;;;;;4.93;2.35;;;28.50;81.50;;;;;;5008836;28;20226;-54
2022/06/22 12:10:25;;;;;;;29.60;6.78;;;28.30;82.20;;;;;;5009319;28;20179;-54
2022/06/22 12:13:16;;;;;;;4.10;2.50;;;28.60;83.20;;;;;;5009538;28;20179;-54
2022/06/22 12:16:02;;;;;;;6.32;2.25;;;28.70;83.60;;;;;;5008674;28;20222;-54
2022/06/22 12:18:38;;;;;;;7.38;2.50;;;29.00;85.10;;;;;;5009031;28;20620;-54
2022/06/22 12:21:38;;;;;;;3.92;2.38;;;29.00;85.80;;;;;;5008896;28;20174;-54
2022/06/22 12:24:28;;;;;;;4.97;2.30;;;28.70;82.10;;;;;;5008783;28;20722;-55
2022/06/22 12:27:32;;;;;;;3.58;2.50;;;29.10;81.70;;;;;;5008735;28;20187;-54
2022/06/22 12:30:04;;;;;;;5.40;2.65;;;29.30;81.10;;;;;;5009127;28;20167;-55
2022/06/22 12:32:43;;;;;;;5.63;2.83;;;29.20;79.10;;;;;;5008858;28;20671;-55
2022/06/22 12:35:36;;;;;;;8.10;3.00;;;29.10;81.30;;;;;;5012843;28;20583;-54
2022/06/22 12:38:16;;;;;;;4.38;2.80;;;28.90;80.80;;;;;;5013654;28;20210;-55
2022/06/22 12:41:02;;;;;;;8.65;3.28;;;29.00;79.40;;;;;;4994671;28;20696;-54
2022/06/22 12:44:14;;;;;;;4.82;2.58;;;28.90;78.70;;;;;;5009646;28;20218;-54
2022/06/22 12:46:43;;;;;;;5.00;2.80;;;29.10;79.80;;;;;;4943358;28;20294;-54
2022/06/22 12:49:37;;;;;;;6.03;2.67;;;29.30;78.70;;;;;;4991942;28;20509;-55
2022/06/22 12:52:07;;;;;;;7.50;2.88;;;29.20;78.90;;;;;;4992250;28;20638;-55
2022/06/22 12:54:44;;;;;;;5.35;2.70;;;29.60;79.00;;;;;;4992242;28;20168;-55
2022/06/22 12:57:20;;;;;;;7.63;2.70;;;29.80;80.20;;;;;;4992192;28;20233;-54
2022/06/22 13:00:07;;;;;;;6.18;2.60;;;29.50;78.70;;;;;;4992338;28;20168;-54
2022/06/22 13:02:36;;;;;;;6.10;2.67;;;29.80;78.50;;;;;;4992891;28;20560;-54
2022/06/22 13:05:10;;;;;;;5.93;2.60;;;29.80;77.00;;;;;;4993881;28;20168;-55
2022/06/22 13:07:46;;;;;;;4.18;2.63;;;29.70;80.30;;;;;;4993815;28;20334;-55
2022/06/22 13:10:16;;;;;;;6.20;2.45;;;29.70;79.40;;;;;;4993599;28;20167;-54
2022/06/22 13:13:06;;;;;;;5.40;2.67;;;29.70;78.30;;;;;;4993505;28;20172;-55
2022/06/22 13:15:46;;;;;;;4.43;2.30;;;29.50;78.00;;;;;;4993770;28;20170;-55
2022/06/22 13:18:51;;;;;;;6.82;2.58;;;29.40;78.00;;;;;;4992362;28;20657;-55
2022/06/22 13:21:35;;;;;;;5.10;2.70;;;29.60;79.60;;;;;;4991130;28;20676;-54
2022/06/22 13:24:21;;;;;;;5.93;2.60;;;29.30;77.70;;;;;;4991910;28;20218;-54
2022/06/22 13:27:14;;;;;;;5.57;2.40;;;29.80;77.30;;;;;;4991378;28;20188;-54
2022/06/22 13:30:11;;;;;;;4.18;2.72;;;29.90;77.00;;;;;;4991571;28;20753;-55
2022/06/22 13:32:38;;;;;;;4.10;2.40;;;29.90;76.50;;;;;;4974050;28;20199;-55
2022/06/22 13:35:17;;;;;;;4.32;2.38;;;30.20;79.00;;;;;;4991475;28;20565;-55
2022/06/22 13:37:57;;;;;;;7.85;2.53;;;30.30;78.40;;;;;;4991678;28;20251;-55
2022/06/22 13:40:37;;;;;;;6.25;2.70;;;30.10;79.20;;;;;;4974064;28;20180;-55
2022/06/22 13:43:03;;;;;;;5.38;2.13;;;30.00;75.80;;;;;;4991056;28;20255;-55
2022/06/22 13:45:40;;;;;;;7.95;2.40;;;30.00;77.10;;;;;;4990645;28;20206;-55
2022/06/22 13:48:16;;;;;;;7.90;2.33;;;30.10;79.10;;;;;;4991303;28;20204;-55
2022/06/22 13:51:09;;;;;;;4.35;2.20;;;30.00;78.60;;;;;;4991240;28;20219;-55
2022/06/22 13:53:54;;;;;;;3.80;2.15;;;30.10;77.60;;;;;;4991573;28;20168;-55
2022/06/22 13:56:42;;;;;;;4.45;2.35;;;30.20;76.10;;;;;;4991521;28;20172;-55
2022/06/22 13:59:19;;;;;;;6.03;2.20;;;30.10;76.00;;;;;;4991155;28;20164;-55
2022/06/22 14:01:50;;;;;;;5.20;2.40;;;30.20;76.90;;;;;;4990977;28;20191;-55
2022/06/22 14:04:28;;;;;;;3.40;2.05;;;30.10;75.20;;;;;;4991340;28;20165;-55
2022/06/22 14:07:11;;;;;;;6.20;2.10;;;30.20;75.30;;;;;;4991362;28;20191;-55
2022/06/22 14:09:49;;;;;;;5.03;2.55;;;30.00;73.10;;;;;;4991263;28;20183;-55
2022/06/22 14:12:41;;;;;;;6.75;2.05;;;30.10;75.30;;;;;;4991531;28;20270;-55